sensor_id;sensor_type;location;lat;lon;timestamp;temperature;humidity
31263;DHT22;17892;52.080;9.006;2023-04-24T00:00:01;13.30;99.90
31263;DHT22;17892;52.080;9.006;2023-04-24T00:02:38;13.30;99.90
31263;DHT22;17892;52.080;9.006;2023-04-24T00:05:05;13.30;99.90
31263;DHT22;17892;52.080;9.006;2023-04-24T00:07:31;13.20;99.90
31263;DHT22;17892;52.080;9.006;2023-04-24T00:09:57;13.20;99.90
31263;DHT22;17892;52.080;9.006;2023-04-24T00:12:24;13.20;99.90
31263;DHT22;17892;52.080;9.006;2023-04-24T00:14:50;13.20;99.90
31263;DHT22;17892;52.080;9.006;2023-04-24T00:17:16;13.20;99.90
31263;DHT22;17892;52.080;9.006;2023-04-24T00:19:45;13.20;99.90
31263;DHT22;17892;52.080;9.006;2023-04-24T00:22:12;13.20;99.90
31263;DHT22;17892;52.080;9.006;2023-04-24T00:24:39;13.20;99.90
31263;DHT22;17892;52.080;9.006;2023-04-24T00:27:04;13.20;99.90
31263;DHT22;17892;52.080;9.006;2023-04-24T00:29:30;13.10;99.90
31263;DHT22;17892;52.080;9.006;2023-04-24T00:31:56;13.10;99.90
31263;DHT22;17892;52.080;9.006;2023-04-24T00:34:22;13.00;99.90
31263;DHT22;17892;52.080;9.006;2023-04-24T00:36:47;13.00;99.90
31263;DHT22;17892;52.080;9.006;2023-04-24T00:39:18;12.90;99.90
31263;DHT22;17892;52.080;9.006;2023-04-24T00:41:45;12.90;99.90
31263;DHT22;17892;52.080;9.006;2023-04-24T00:44:11;12.90;99.90
31263;DHT22;17892;52.080;9.006;2023-04-24T00:46:37;12.90;99.90
31263;DHT22;17892;52.080;9.006;2023-04-24T00:49:04;12.80;99.90
31263;DHT22;17892;52.080;9.006;2023-04-24T00:51:30;12.80;99.90
31263;DHT22;17892;52.080;9.006;2023-04-24T00:53:58;12.80;99.90
31263;DHT22;17892;52.080;9.006;2023-04-24T00:56:24;12.70;99.90
31263;DHT22;17892;52.080;9.006;2023-04-24T00:58:50;12.70;99.90
31263;DHT22;17892;52.080;9.006;2023-04-24T01:01:20;12.60;99.90
31263;DHT22;17892;52.080;9.006;2023-04-24T01:03:46;12.60;99.90
31263;DHT22;17892;52.080;9.006;2023-04-24T01:06:13;12.50;99.90
31263;DHT22;17892;52.080;9.006;2023-04-24T01:08:40;12.50;99.90
31263;DHT22;17892;52.080;9.006;2023-04-24T01:11:07;12.40;99.90
31263;DHT22;17892;52.080;9.006;2023-04-24T01:13:33;12.40;99.90
31263;DHT22;17892;52.080;9.006;2023-04-24T01:15:59;12.40;99.90
31263;DHT22;17892;52.080;9.006;2023-04-24T01:18:26;12.40;99.90
31263;DHT22;17892;52.080;9.006;2023-04-24T01:20:57;12.30;99.90
31263;DHT22;17892;52.080;9.006;2023-04-24T01:23:23;12.30;99.90
31263;DHT22;17892;52.080;9.006;2023-04-24T01:25:50;12.30;99.90
31263;DHT22;17892;52.080;9.006;2023-04-24T01:28:16;12.30;99.90
31263;DHT22;17892;52.080;9.006;2023-04-24T01:30:44;12.20;99.90
31263;DHT22;17892;52.080;9.006;2023-04-24T01:33:10;12.30;99.90
31263;DHT22;17892;52.080;9.006;2023-04-24T01:35:37;12.30;99.90
31263;DHT22;17892;52.080;9.006;2023-04-24T01:38:03;12.30;99.90
31263;DHT22;17892;52.080;9.006;2023-04-24T01:40:31;12.30;99.90
31263;DHT22;17892;52.080;9.006;2023-04-24T01:42:57;12.30;99.90
31263;DHT22;17892;52.080;9.006;2023-04-24T01:45:24;12.40;99.90
31263;DHT22;17892;52.080;9.006;2023-04-24T01:47:50;12.40;99.90
31263;DHT22;17892;52.080;9.006;2023-04-24T01:50:17;12.50;99.90
31263;DHT22;17892;52.080;9.006;2023-04-24T01:52:43;12.50;99.90
31263;DHT22;17892;52.080;9.006;2023-04-24T01:55:10;12.40;99.90
31263;DHT22;17892;52.080;9.006;2023-04-24T01:57:36;12.40;99.90
31263;DHT22;17892;52.080;9.006;2023-04-24T02:00:03;12.40;99.90
31263;DHT22;17892;52.080;9.006;2023-04-24T02:02:30;12.30;99.90
31263;DHT22;17892;52.080;9.006;2023-04-24T02:04:56;12.20;99.90
31263;DHT22;17892;52.080;9.006;2023-04-24T02:07:22;12.10;99.90
31263;DHT22;17892;52.080;9.006;2023-04-24T02:09:48;12.10;99.90
31263;DHT22;17892;52.080;9.006;2023-04-24T02:12:15;12.00;99.90
31263;DHT22;17892;52.080;9.006;2023-04-24T02:14:41;11.90;99.90
31263;DHT22;17892;52.080;9.006;2023-04-24T02:17:07;11.90;99.90
31263;DHT22;17892;52.080;9.006;2023-04-24T02:19:33;11.80;99.90
31263;DHT22;17892;52.080;9.006;2023-04-24T02:21:59;11.80;99.90
31263;DHT22;17892;52.080;9.006;2023-04-24T02:24:24;11.70;99.90
31263;DHT22;17892;52.080;9.006;2023-04-24T02:26:50;11.70;99.90
31263;DHT22;17892;52.080;9.006;2023-04-24T02:29:16;11.70;99.90
31263;DHT22;17892;52.080;9.006;2023-04-24T02:31:41;11.70;99.90
31263;DHT22;17892;52.080;9.006;2023-04-24T02:34:07;11.70;99.90
31263;DHT22;17892;52.080;9.006;2023-04-24T02:36:33;11.80;99.90
31263;DHT22;17892;52.080;9.006;2023-04-24T02:38:58;11.80;99.90
31263;DHT22;17892;52.080;9.006;2023-04-24T02:41:24;11.80;99.90
31263;DHT22;17892;52.080;9.006;2023-04-24T02:43:56;11.90;99.90
31263;DHT22;17892;52.080;9.006;2023-04-24T02:46:22;12.00;99.90
31263;DHT22;17892;52.080;9.006;2023-04-24T02:48:47;12.00;99.90
31263;DHT22;17892;52.080;9.006;2023-04-24T02:51:13;12.10;99.90
31263;DHT22;17892;52.080;9.006;2023-04-24T02:53:39;12.10;99.90
31263;DHT22;17892;52.080;9.006;2023-04-24T02:56:04;12.10;99.90
31263;DHT22;17892;52.080;9.006;2023-04-24T02:58:30;12.20;99.90
31263;DHT22;17892;52.080;9.006;2023-04-24T03:00:56;12.20;99.90
31263;DHT22;17892;52.080;9.006;2023-04-24T03:03:22;12.20;99.90
31263;DHT22;17892;52.080;9.006;2023-04-24T03:05:48;12.20;99.90
31263;DHT22;17892;52.080;9.006;2023-04-24T03:08:13;12.20;99.90
31263;DHT22;17892;52.080;9.006;2023-04-24T03:10:40;12.20;99.90
31263;DHT22;17892;52.080;9.006;2023-04-24T03:13:05;12.20;99.90
31263;DHT22;17892;52.080;9.006;2023-04-24T03:15:31;12.20;99.90
31263;DHT22;17892;52.080;9.006;2023-04-24T03:17:57;12.20;99.90
31263;DHT22;17892;52.080;9.006;2023-04-24T03:20:23;12.20;99.90
31263;DHT22;17892;52.080;9.006;2023-04-24T03:22:49;12.30;99.90
31263;DHT22;17892;52.080;9.006;2023-04-24T03:25:15;12.30;99.90
31263;DHT22;17892;52.080;9.006;2023-04-24T03:27:40;12.30;99.90
31263;DHT22;17892;52.080;9.006;2023-04-24T03:30:07;12.40;99.90
31263;DHT22;17892;52.080;9.006;2023-04-24T03:32:33;12.40;99.90
31263;DHT22;17892;52.080;9.006;2023-04-24T03:34:59;12.40;99.90
31263;DHT22;17892;52.080;9.006;2023-04-24T03:37:25;12.50;99.90
31263;DHT22;17892;52.080;9.006;2023-04-24T03:39:51;12.50;99.90
31263;DHT22;17892;52.080;9.006;2023-04-24T03:42:18;12.60;99.90
31263;DHT22;17892;52.080;9.006;2023-04-24T03:44:43;12.60;99.90
31263;DHT22;17892;52.080;9.006;2023-04-24T03:47:09;12.60;99.90
31263;DHT22;17892;52.080;9.006;2023-04-24T03:49:35;12.60;99.90
31263;DHT22;17892;52.080;9.006;2023-04-24T03:52:00;12.60;99.90
31263;DHT22;17892;52.080;9.006;2023-04-24T03:54:26;12.60;99.90
31263;DHT22;17892;52.080;9.006;2023-04-24T03:56:52;12.60;99.90
31263;DHT22;17892;52.080;9.006;2023-04-24T03:59:18;12.70;99.90
31263;DHT22;17892;52.080;9.006;2023-04-24T04:01:43;12.70;99.90
31263;DHT22;17892;52.080;9.006;2023-04-24T04:04:10;12.70;99.90
31263;DHT22;17892;52.080;9.006;2023-04-24T04:06:36;12.70;99.90
31263;DHT22;17892;52.080;9.006;2023-04-24T04:09:02;12.70;99.90
31263;DHT22;17892;52.080;9.006;2023-04-24T04:11:28;12.70;99.90
31263;DHT22;17892;52.080;9.006;2023-04-24T04:13:54;12.70;99.90
31263;DHT22;17892;52.080;9.006;2023-04-24T04:16:21;12.70;99.90
31263;DHT22;17892;52.080;9.006;2023-04-24T04:18:46;12.70;99.90
31263;DHT22;17892;52.080;9.006;2023-04-24T04:21:12;12.80;99.90
31263;DHT22;17892;52.080;9.006;2023-04-24T04:23:38;12.80;99.90
31263;DHT22;17892;52.080;9.006;2023-04-24T04:26:05;12.80;99.90
31263;DHT22;17892;52.080;9.006;2023-04-24T04:28:31;12.80;99.90
31263;DHT22;17892;52.080;9.006;2023-04-24T04:30:57;12.80;99.90
31263;DHT22;17892;52.080;9.006;2023-04-24T04:33:26;12.80;99.90
31263;DHT22;17892;52.080;9.006;2023-04-24T04:35:52;12.80;99.90
31263;DHT22;17892;52.080;9.006;2023-04-24T04:38:20;12.80;99.90
31263;DHT22;17892;52.080;9.006;2023-04-24T04:40:46;12.80;99.90
31263;DHT22;17892;52.080;9.006;2023-04-24T04:43:12;12.80;99.90
31263;DHT22;17892;52.080;9.006;2023-04-24T04:45:40;12.80;99.90
31263;DHT22;17892;52.080;9.006;2023-04-24T04:48:08;12.80;99.90
31263;DHT22;17892;52.080;9.006;2023-04-24T04:50:35;12.80;99.90
31263;DHT22;17892;52.080;9.006;2023-04-24T04:53:01;12.80;99.90
31263;DHT22;17892;52.080;9.006;2023-04-24T04:55:26;12.80;99.90
31263;DHT22;17892;52.080;9.006;2023-04-24T04:57:52;12.80;99.90
31263;DHT22;17892;52.080;9.006;2023-04-24T05:00:18;12.80;99.90
31263;DHT22;17892;52.080;9.006;2023-04-24T05:02:44;12.80;99.90
31263;DHT22;17892;52.080;9.006;2023-04-24T05:05:10;12.80;99.90
31263;DHT22;17892;52.080;9.006;2023-04-24T05:07:36;12.80;99.90
31263;DHT22;17892;52.080;9.006;2023-04-24T05:10:02;12.70;99.90
31263;DHT22;17892;52.080;9.006;2023-04-24T05:12:27;12.70;99.90
31263;DHT22;17892;52.080;9.006;2023-04-24T05:14:53;12.70;99.90
31263;DHT22;17892;52.080;9.006;2023-04-24T05:17:19;12.70;99.90
31263;DHT22;17892;52.080;9.006;2023-04-24T05:19:44;12.70;99.90
31263;DHT22;17892;52.080;9.006;2023-04-24T05:22:11;12.70;99.90
31263;DHT22;17892;52.080;9.006;2023-04-24T05:24:37;12.70;99.90
31263;DHT22;17892;52.080;9.006;2023-04-24T05:27:03;12.70;99.90
31263;DHT22;17892;52.080;9.006;2023-04-24T05:29:32;12.70;99.90
31263;DHT22;17892;52.080;9.006;2023-04-24T05:31:59;12.80;99.90
31263;DHT22;17892;52.080;9.006;2023-04-24T05:34:25;12.70;99.90
31263;DHT22;17892;52.080;9.006;2023-04-24T05:36:51;12.70;99.90
31263;DHT22;17892;52.080;9.006;2023-04-24T05:39:17;12.70;99.90
31263;DHT22;17892;52.080;9.006;2023-04-24T05:41:43;12.70;99.90
31263;DHT22;17892;52.080;9.006;2023-04-24T05:44:09;12.70;99.90
31263;DHT22;17892;52.080;9.006;2023-04-24T05:46:35;12.70;99.90
31263;DHT22;17892;52.080;9.006;2023-04-24T05:49:01;12.70;99.90
31263;DHT22;17892;52.080;9.006;2023-04-24T05:51:27;12.70;99.90
31263;DHT22;17892;52.080;9.006;2023-04-24T05:53:53;12.70;99.90
31263;DHT22;17892;52.080;9.006;2023-04-24T05:56:19;12.70;99.90
31263;DHT22;17892;52.080;9.006;2023-04-24T05:58:46;12.70;99.90
31263;DHT22;17892;52.080;9.006;2023-04-24T06:01:12;12.70;99.90
31263;DHT22;17892;52.080;9.006;2023-04-24T06:03:40;12.70;99.90
31263;DHT22;17892;52.080;9.006;2023-04-24T06:06:07;12.70;99.90
31263;DHT22;17892;52.080;9.006;2023-04-24T06:08:34;12.70;99.90
31263;DHT22;17892;52.080;9.006;2023-04-24T06:11:00;12.80;99.90
31263;DHT22;17892;52.080;9.006;2023-04-24T06:13:26;12.80;99.90
31263;DHT22;17892;52.080;9.006;2023-04-24T06:15:52;12.80;99.90
31263;DHT22;17892;52.080;9.006;2023-04-24T06:18:18;12.90;99.90
31263;DHT22;17892;52.080;9.006;2023-04-24T06:20:44;12.90;99.90
31263;DHT22;17892;52.080;9.006;2023-04-24T06:23:10;12.80;99.90
31263;DHT22;17892;52.080;9.006;2023-04-24T06:25:36;12.80;99.90
31263;DHT22;17892;52.080;9.006;2023-04-24T06:28:03;12.80;99.90
31263;DHT22;17892;52.080;9.006;2023-04-24T06:30:28;12.80;99.90
31263;DHT22;17892;52.080;9.006;2023-04-24T06:32:54;12.80;99.90
31263;DHT22;17892;52.080;9.006;2023-04-24T06:35:20;12.80;99.90
31263;DHT22;17892;52.080;9.006;2023-04-24T06:37:46;12.80;99.90
31263;DHT22;17892;52.080;9.006;2023-04-24T06:40:11;12.80;99.90
31263;DHT22;17892;52.080;9.006;2023-04-24T06:42:37;12.80;99.90
31263;DHT22;17892;52.080;9.006;2023-04-24T06:45:04;12.80;99.50
31263;DHT22;17892;52.080;9.006;2023-04-24T06:47:31;12.70;99.50
31263;DHT22;17892;52.080;9.006;2023-04-24T06:49:58;12.70;99.70
31263;DHT22;17892;52.080;9.006;2023-04-24T06:52:24;12.70;99.90
31263;DHT22;17892;52.080;9.006;2023-04-24T06:54:49;12.60;99.90
31263;DHT22;17892;52.080;9.006;2023-04-24T06:57:15;12.60;99.90
31263;DHT22;17892;52.080;9.006;2023-04-24T06:59:43;12.70;99.90
31263;DHT22;17892;52.080;9.006;2023-04-24T07:02:09;12.70;99.90
31263;DHT22;17892;52.080;9.006;2023-04-24T07:04:35;12.70;99.90
31263;DHT22;17892;52.080;9.006;2023-04-24T07:07:02;12.70;99.90
31263;DHT22;17892;52.080;9.006;2023-04-24T07:09:28;12.70;99.60
31263;DHT22;17892;52.080;9.006;2023-04-24T07:11:53;12.70;99.70
31263;DHT22;17892;52.080;9.006;2023-04-24T07:14:19;12.70;99.70
31263;DHT22;17892;52.080;9.006;2023-04-24T07:16:45;12.70;99.70
31263;DHT22;17892;52.080;9.006;2023-04-24T07:19:12;12.70;99.70
31263;DHT22;17892;52.080;9.006;2023-04-24T07:21:39;12.70;99.70
31263;DHT22;17892;52.080;9.006;2023-04-24T07:24:05;12.60;99.70
31263;DHT22;17892;52.080;9.006;2023-04-24T07:26:31;12.60;99.80
31263;DHT22;17892;52.080;9.006;2023-04-24T07:28:56;12.60;99.80
31263;DHT22;17892;52.080;9.006;2023-04-24T07:31:22;12.60;99.90
31263;DHT22;17892;52.080;9.006;2023-04-24T07:33:48;12.60;99.80
31263;DHT22;17892;52.080;9.006;2023-04-24T07:36:15;12.60;99.70
31263;DHT22;17892;52.080;9.006;2023-04-24T07:38:47;12.60;99.80
31263;DHT22;17892;52.080;9.006;2023-04-24T07:41:13;12.60;99.90
31263;DHT22;17892;52.080;9.006;2023-04-24T07:43:40;12.60;99.90
31263;DHT22;17892;52.080;9.006;2023-04-24T07:46:07;12.60;99.90
31263;DHT22;17892;52.080;9.006;2023-04-24T07:48:33;12.70;99.90
31263;DHT22;17892;52.080;9.006;2023-04-24T07:50:59;12.60;99.90
31263;DHT22;17892;52.080;9.006;2023-04-24T07:53:25;12.80;99.90
31263;DHT22;17892;52.080;9.006;2023-04-24T07:55:51;12.80;99.20
31263;DHT22;17892;52.080;9.006;2023-04-24T07:58:16;12.80;99.40
31263;DHT22;17892;52.080;9.006;2023-04-24T08:00:42;12.60;99.30
31263;DHT22;17892;52.080;9.006;2023-04-24T08:03:08;12.80;99.30
31263;DHT22;17892;52.080;9.006;2023-04-24T08:05:33;12.70;99.20
31263;DHT22;17892;52.080;9.006;2023-04-24T08:07:59;12.70;99.30
31263;DHT22;17892;52.080;9.006;2023-04-24T08:10:25;12.70;99.40
31263;DHT22;17892;52.080;9.006;2023-04-24T08:12:51;12.70;99.40
31263;DHT22;17892;52.080;9.006;2023-04-24T08:15:17;12.70;99.10
31263;DHT22;17892;52.080;9.006;2023-04-24T08:17:43;12.70;99.10
31263;DHT22;17892;52.080;9.006;2023-04-24T08:20:10;12.70;99.30
31263;DHT22;17892;52.080;9.006;2023-04-24T08:22:42;12.70;99.40
31263;DHT22;17892;52.080;9.006;2023-04-24T08:25:09;12.70;99.50
31263;DHT22;17892;52.080;9.006;2023-04-24T08:27:36;12.80;99.70
31263;DHT22;17892;52.080;9.006;2023-04-24T08:30:03;12.80;99.70
31263;DHT22;17892;52.080;9.006;2023-04-24T08:32:29;12.90;99.80
31263;DHT22;17892;52.080;9.006;2023-04-24T08:34:56;13.00;99.90
31263;DHT22;17892;52.080;9.006;2023-04-24T08:37:22;13.10;99.90
31263;DHT22;17892;52.080;9.006;2023-04-24T08:39:49;13.20;99.80
31263;DHT22;17892;52.080;9.006;2023-04-24T08:42:17;13.30;99.80
31263;DHT22;17892;52.080;9.006;2023-04-24T08:44:44;13.40;99.70
31263;DHT22;17892;52.080;9.006;2023-04-24T08:47:11;13.50;99.30
31263;DHT22;17892;52.080;9.006;2023-04-24T08:49:38;13.60;99.30
31263;DHT22;17892;52.080;9.006;2023-04-24T08:52:07;13.70;99.20
31263;DHT22;17892;52.080;9.006;2023-04-24T08:54:36;13.80;98.80
31263;DHT22;17892;52.080;9.006;2023-04-24T08:57:03;13.80;98.50
31263;DHT22;17892;52.080;9.006;2023-04-24T08:59:30;13.80;98.80
31263;DHT22;17892;52.080;9.006;2023-04-24T09:01:57;13.90;98.90
31263;DHT22;17892;52.080;9.006;2023-04-24T09:04:24;13.90;98.60
31263;DHT22;17892;52.080;9.006;2023-04-24T09:06:51;13.90;98.20
31263;DHT22;17892;52.080;9.006;2023-04-24T09:09:21;13.90;98.20
31263;DHT22;17892;52.080;9.006;2023-04-24T09:11:46;13.90;98.20
31263;DHT22;17892;52.080;9.006;2023-04-24T09:14:14;13.90;98.20
31263;DHT22;17892;52.080;9.006;2023-04-24T09:16:41;14.00;98.20
31263;DHT22;17892;52.080;9.006;2023-04-24T09:19:07;14.00;97.80
31263;DHT22;17892;52.080;9.006;2023-04-24T09:21:34;13.90;97.70
31263;DHT22;17892;52.080;9.006;2023-04-24T09:24:03;13.90;97.20
31263;DHT22;17892;52.080;9.006;2023-04-24T09:26:31;13.80;97.20
31263;DHT22;17892;52.080;9.006;2023-04-24T09:28:58;13.70;97.50
31263;DHT22;17892;52.080;9.006;2023-04-24T09:31:27;13.70;97.70
31263;DHT22;17892;52.080;9.006;2023-04-24T09:33:56;13.60;97.40
31263;DHT22;17892;52.080;9.006;2023-04-24T09:36:28;13.60;97.20
31263;DHT22;17892;52.080;9.006;2023-04-24T09:39:01;13.60;97.10
31263;DHT22;17892;52.080;9.006;2023-04-24T09:41:28;13.50;97.20
31263;DHT22;17892;52.080;9.006;2023-04-24T09:43:55;13.40;97.40
31263;DHT22;17892;52.080;9.006;2023-04-24T09:46:21;13.40;97.40
31263;DHT22;17892;52.080;9.006;2023-04-24T09:48:47;13.30;97.30
31263;DHT22;17892;52.080;9.006;2023-04-24T09:51:13;13.30;97.30
31263;DHT22;17892;52.080;9.006;2023-04-24T09:53:45;13.30;97.50
31263;DHT22;17892;52.080;9.006;2023-04-24T09:56:12;13.30;97.20
31263;DHT22;17892;52.080;9.006;2023-04-24T09:58:40;13.30;97.70
31263;DHT22;17892;52.080;9.006;2023-04-24T10:01:06;13.30;98.00
31263;DHT22;17892;52.080;9.006;2023-04-24T10:03:35;13.40;98.10
31263;DHT22;17892;52.080;9.006;2023-04-24T10:06:02;13.40;98.10
31263;DHT22;17892;52.080;9.006;2023-04-24T10:08:35;13.50;98.00
31263;DHT22;17892;52.080;9.006;2023-04-24T10:11:02;13.50;97.70
31263;DHT22;17892;52.080;9.006;2023-04-24T10:13:28;13.60;97.50
31263;DHT22;17892;52.080;9.006;2023-04-24T10:15:54;13.60;97.20
31263;DHT22;17892;52.080;9.006;2023-04-24T10:18:21;13.50;97.10
31263;DHT22;17892;52.080;9.006;2023-04-24T10:20:48;13.50;97.00
31263;DHT22;17892;52.080;9.006;2023-04-24T10:23:14;13.50;97.20
31263;DHT22;17892;52.080;9.006;2023-04-24T10:25:40;13.50;97.40
31263;DHT22;17892;52.080;9.006;2023-04-24T10:28:06;13.50;97.40
31263;DHT22;17892;52.080;9.006;2023-04-24T10:30:33;13.50;97.30
31263;DHT22;17892;52.080;9.006;2023-04-24T10:33:08;13.50;97.20
31263;DHT22;17892;52.080;9.006;2023-04-24T10:35:36;13.60;97.00
31263;DHT22;17892;52.080;9.006;2023-04-24T10:38:07;13.50;96.80
31263;DHT22;17892;52.080;9.006;2023-04-24T10:40:36;13.50;96.20
31263;DHT22;17892;52.080;9.006;2023-04-24T10:43:03;13.40;96.30
31263;DHT22;17892;52.080;9.006;2023-04-24T10:45:36;13.30;96.10
31263;DHT22;17892;52.080;9.006;2023-04-24T10:48:09;13.20;96.30
31263;DHT22;17892;52.080;9.006;2023-04-24T10:50:57;13.20;96.80
31263;DHT22;17892;52.080;9.006;2023-04-24T10:53:24;13.30;96.80
31263;DHT22;17892;52.080;9.006;2023-04-24T10:56:05;13.40;96.90
31263;DHT22;17892;52.080;9.006;2023-04-24T11:01:30;13.60;96.20
31263;DHT22;17892;52.080;9.006;2023-04-24T11:04:02;13.60;95.50
31263;DHT22;17892;52.080;9.006;2023-04-24T11:06:34;13.60;96.20
31263;DHT22;17892;52.080;9.006;2023-04-24T11:09:11;13.60;96.00
31263;DHT22;17892;52.080;9.006;2023-04-24T11:11:45;13.60;95.70
31263;DHT22;17892;52.080;9.006;2023-04-24T11:14:15;13.60;95.40
31263;DHT22;17892;52.080;9.006;2023-04-24T11:16:54;13.50;95.30
31263;DHT22;17892;52.080;9.006;2023-04-24T11:19:26;13.40;95.10
31263;DHT22;17892;52.080;9.006;2023-04-24T11:22:14;13.30;95.20
31263;DHT22;17892;52.080;9.006;2023-04-24T11:27:17;13.10;95.40
31263;DHT22;17892;52.080;9.006;2023-04-24T11:32:29;12.90;95.60
31263;DHT22;17892;52.080;9.006;2023-04-24T11:35:00;12.80;95.70
31263;DHT22;17892;52.080;9.006;2023-04-24T11:37:37;12.70;95.70
31263;DHT22;17892;52.080;9.006;2023-04-24T11:40:04;12.50;95.70
31263;DHT22;17892;52.080;9.006;2023-04-24T11:42:40;12.40;95.70
31263;DHT22;17892;52.080;9.006;2023-04-24T11:45:09;12.30;96.30
31263;DHT22;17892;52.080;9.006;2023-04-24T11:47:43;12.20;96.70
31263;DHT22;17892;52.080;9.006;2023-04-24T11:50:16;12.20;97.10
31263;DHT22;17892;52.080;9.006;2023-04-24T11:52:46;12.10;97.30
31263;DHT22;17892;52.080;9.006;2023-04-24T11:57:53;12.00;97.30
31263;DHT22;17892;52.080;9.006;2023-04-24T12:00:29;12.00;97.70
31263;DHT22;17892;52.080;9.006;2023-04-24T12:03:08;11.90;97.40
31263;DHT22;17892;52.080;9.006;2023-04-24T12:05:35;11.80;97.60
31263;DHT22;17892;52.080;9.006;2023-04-24T12:08:01;11.70;97.60
31263;DHT22;17892;52.080;9.006;2023-04-24T12:10:29;11.60;97.90
31263;DHT22;17892;52.080;9.006;2023-04-24T12:12:57;11.60;98.20
31263;DHT22;17892;52.080;9.006;2023-04-24T12:15:24;11.50;98.40
31263;DHT22;17892;52.080;9.006;2023-04-24T12:17:54;11.50;98.50
31263;DHT22;17892;52.080;9.006;2023-04-24T12:20:28;11.40;99.40
31263;DHT22;17892;52.080;9.006;2023-04-24T12:22:56;11.40;99.90
31263;DHT22;17892;52.080;9.006;2023-04-24T12:25:42;11.30;99.90
31263;DHT22;17892;52.080;9.006;2023-04-24T12:28:12;11.20;99.90
31263;DHT22;17892;52.080;9.006;2023-04-24T12:30:44;11.10;99.90
31263;DHT22;17892;52.080;9.006;2023-04-24T12:33:18;11.10;99.90
31263;DHT22;17892;52.080;9.006;2023-04-24T12:35:45;11.00;99.90
31263;DHT22;17892;52.080;9.006;2023-04-24T12:38:12;10.80;99.90
31263;DHT22;17892;52.080;9.006;2023-04-24T12:40:39;10.70;99.90
31263;DHT22;17892;52.080;9.006;2023-04-24T12:43:19;10.60;99.90
31263;DHT22;17892;52.080;9.006;2023-04-24T12:45:48;10.60;99.90
31263;DHT22;17892;52.080;9.006;2023-04-24T12:48:14;10.60;99.90
31263;DHT22;17892;52.080;9.006;2023-04-24T12:50:40;10.60;99.90
31263;DHT22;17892;52.080;9.006;2023-04-24T12:53:07;10.40;99.90
31263;DHT22;17892;52.080;9.006;2023-04-24T12:55:34;10.60;99.90
31263;DHT22;17892;52.080;9.006;2023-04-24T12:58:00;10.50;99.90
31263;DHT22;17892;52.080;9.006;2023-04-24T13:00:25;10.40;99.90
31263;DHT22;17892;52.080;9.006;2023-04-24T13:02:51;10.40;99.90
31263;DHT22;17892;52.080;9.006;2023-04-24T13:05:17;10.30;99.90
31263;DHT22;17892;52.080;9.006;2023-04-24T13:07:42;10.30;99.90
31263;DHT22;17892;52.080;9.006;2023-04-24T13:10:08;10.20;99.90
31263;DHT22;17892;52.080;9.006;2023-04-24T13:12:34;10.20;99.90
31263;DHT22;17892;52.080;9.006;2023-04-24T13:15:00;10.10;99.90
31263;DHT22;17892;52.080;9.006;2023-04-24T13:17:26;10.10;99.90
31263;DHT22;17892;52.080;9.006;2023-04-24T13:19:54;10.00;99.90
31263;DHT22;17892;52.080;9.006;2023-04-24T13:22:20;10.00;99.90
31263;DHT22;17892;52.080;9.006;2023-04-24T13:24:46;9.90;99.90
31263;DHT22;17892;52.080;9.006;2023-04-24T13:27:14;9.90;99.90
31263;DHT22;17892;52.080;9.006;2023-04-24T13:29:40;9.90;99.90
31263;DHT22;17892;52.080;9.006;2023-04-24T13:32:08;9.90;99.90
31263;DHT22;17892;52.080;9.006;2023-04-24T13:34:34;9.90;99.90
31263;DHT22;17892;52.080;9.006;2023-04-24T13:37:01;9.90;99.90
31263;DHT22;17892;52.080;9.006;2023-04-24T13:39:28;9.90;99.90
31263;DHT22;17892;52.080;9.006;2023-04-24T13:41:55;9.90;99.90
31263;DHT22;17892;52.080;9.006;2023-04-24T13:44:21;9.90;99.90
31263;DHT22;17892;52.080;9.006;2023-04-24T13:46:50;10.00;99.90
31263;DHT22;17892;52.080;9.006;2023-04-24T13:49:19;10.00;99.90
31263;DHT22;17892;52.080;9.006;2023-04-24T13:51:46;10.00;99.90
31263;DHT22;17892;52.080;9.006;2023-04-24T13:54:12;10.00;99.90
31263;DHT22;17892;52.080;9.006;2023-04-24T13:56:39;10.00;99.90
31263;DHT22;17892;52.080;9.006;2023-04-24T13:59:05;9.90;99.90
31263;DHT22;17892;52.080;9.006;2023-04-24T14:01:32;9.90;99.90
31263;DHT22;17892;52.080;9.006;2023-04-24T14:03:57;9.90;99.90
31263;DHT22;17892;52.080;9.006;2023-04-24T14:06:23;9.90;99.90
31263;DHT22;17892;52.080;9.006;2023-04-24T14:08:49;9.90;99.90
31263;DHT22;17892;52.080;9.006;2023-04-24T14:11:16;10.00;99.90
31263;DHT22;17892;52.080;9.006;2023-04-24T14:13:43;10.00;99.90
31263;DHT22;17892;52.080;9.006;2023-04-24T14:16:10;10.00;99.90
31263;DHT22;17892;52.080;9.006;2023-04-24T14:18:35;10.10;99.90
31263;DHT22;17892;52.080;9.006;2023-04-24T14:21:02;10.00;99.90
31263;DHT22;17892;52.080;9.006;2023-04-24T14:23:28;9.90;99.90
31263;DHT22;17892;52.080;9.006;2023-04-24T14:25:54;9.90;99.90
31263;DHT22;17892;52.080;9.006;2023-04-24T14:28:20;9.90;99.90
31263;DHT22;17892;52.080;9.006;2023-04-24T14:30:47;9.90;99.90
31263;DHT22;17892;52.080;9.006;2023-04-24T14:33:13;9.90;99.90
31263;DHT22;17892;52.080;9.006;2023-04-24T14:35:40;9.60;99.90
31263;DHT22;17892;52.080;9.006;2023-04-24T14:38:10;9.80;99.90
31263;DHT22;17892;52.080;9.006;2023-04-24T14:40:36;9.70;99.90
31263;DHT22;17892;52.080;9.006;2023-04-24T14:43:02;9.70;99.90
31263;DHT22;17892;52.080;9.006;2023-04-24T14:45:28;9.70;99.90
31263;DHT22;17892;52.080;9.006;2023-04-24T14:47:54;9.70;99.90
31263;DHT22;17892;52.080;9.006;2023-04-24T14:50:20;9.70;99.90
31263;DHT22;17892;52.080;9.006;2023-04-24T14:52:46;9.80;99.90
31263;DHT22;17892;52.080;9.006;2023-04-24T14:55:12;9.80;99.90
31263;DHT22;17892;52.080;9.006;2023-04-24T14:57:38;9.90;99.90
31263;DHT22;17892;52.080;9.006;2023-04-24T15:00:07;10.00;99.90
31263;DHT22;17892;52.080;9.006;2023-04-24T15:02:35;10.10;99.90
31263;DHT22;17892;52.080;9.006;2023-04-24T15:05:05;10.10;99.90
31263;DHT22;17892;52.080;9.006;2023-04-24T15:07:31;10.20;99.90
31263;DHT22;17892;52.080;9.006;2023-04-24T15:09:58;10.30;99.90
31263;DHT22;17892;52.080;9.006;2023-04-24T15:12:23;10.40;99.90
31263;DHT22;17892;52.080;9.006;2023-04-24T15:14:50;10.40;99.90
31263;DHT22;17892;52.080;9.006;2023-04-24T15:17:15;10.50;99.90
31263;DHT22;17892;52.080;9.006;2023-04-24T15:19:41;10.50;99.90
31263;DHT22;17892;52.080;9.006;2023-04-24T15:22:07;10.50;99.90
31263;DHT22;17892;52.080;9.006;2023-04-24T15:24:32;10.50;99.90
31263;DHT22;17892;52.080;9.006;2023-04-24T15:26:59;10.40;99.90
31263;DHT22;17892;52.080;9.006;2023-04-24T15:29:27;10.40;99.90
31263;DHT22;17892;52.080;9.006;2023-04-24T15:31:53;10.40;99.90
31263;DHT22;17892;52.080;9.006;2023-04-24T15:34:18;10.30;99.90
31263;DHT22;17892;52.080;9.006;2023-04-24T15:36:44;10.30;99.90
31263;DHT22;17892;52.080;9.006;2023-04-24T15:39:10;10.20;99.90
31263;DHT22;17892;52.080;9.006;2023-04-24T15:41:36;10.20;99.90